Time;durP1;ratioP1;P1;durP2;ratioP2;P2;SDS_P1;SDS_P2;PMS_P1;PMS_P2;Temp;Humidity;BMP_temperature;BMP_pressure;BME280_temperature;BME280_humidity;BME280_pressure;Samples;Min_cycle;Max_cycle;Signal;HPM_P1;HPM_P2
2021/06/22 00:01:42;;;;;;;9.82;6.63;;;23.40;94.30;;;;;;5076599;28;20032;-85
2021/06/22 00:04:08;;;;;;;9.55;7.07;;;23.40;94.40;;;;;;5043333;28;20066;-86
2021/06/22 00:06:33;;;;;;;10.88;7.60;;;23.40;94.40;;;;;;5058637;28;20024;-86
2021/06/22 00:09:00;;;;;;;9.85;8.05;;;23.40;94.50;;;;;;5059611;28;20028;-86
2021/06/22 00:11:25;;;;;;;9.55;7.25;;;23.40;94.50;;;;;;5059520;28;20032;-86
2021/06/22 00:13:51;;;;;;;10.73;7.85;;;23.50;94.50;;;;;;5075904;28;20371;-86
2021/06/22 00:16:18;;;;;;;9.23;7.28;;;23.40;94.40;;;;;;5059398;28;20102;-86
2021/06/22 00:18:43;;;;;;;8.10;7.13;;;23.40;94.40;;;;;;5059615;28;20036;-86
2021/06/22 00:21:09;;;;;;;9.88;7.60;;;23.40;94.40;;;;;;5042864;28;20082;-86
2021/06/22 00:23:35;;;;;;;9.30;7.35;;;23.40;94.40;;;;;;5075898;28;20028;-86
2021/06/22 00:26:00;;;;;;;9.07;7.15;;;23.40;94.40;;;;;;5059683;28;20032;-85
2021/06/22 00:28:26;;;;;;;7.85;6.95;;;23.40;94.40;;;;;;5060144;28;20052;-86
2021/06/22 00:30:52;;;;;;;9.27;6.70;;;23.40;94.40;;;;;;5059211;28;20124;-86
2021/06/22 00:33:17;;;;;;;10.20;7.78;;;23.40;94.40;;;;;;5042493;28;20506;-86
2021/06/22 00:35:43;;;;;;;10.52;7.30;;;23.40;94.40;;;;;;5075927;28;20036;-86
2021/06/22 00:38:09;;;;;;;9.88;7.55;;;23.40;94.40;;;;;;5042700;28;20028;-86
2021/06/22 00:40:34;;;;;;;10.15;7.50;;;23.40;94.40;;;;;;5042474;28;20458;-86
2021/06/22 00:43:00;;;;;;;9.80;7.97;;;23.40;94.40;;;;;;5059205;28;20518;-86
2021/06/22 00:45:31;;;;;;;10.88;8.18;;;23.40;94.40;;;;;;5076061;28;20085;-86
2021/06/22 00:47:57;;;;;;;13.30;8.68;;;23.40;94.40;;;;;;5093697;28;20020;-86
2021/06/22 00:50:23;;;;;;;9.90;8.05;;;23.40;94.40;;;;;;5058878;28;20031;-85
2021/06/22 00:52:49;;;;;;;9.57;7.75;;;23.40;94.40;;;;;;5093799;28;20022;-85
2021/06/22 00:55:28;;;;;;;10.02;8.52;;;23.40;94.40;;;;;;5059395;28;20389;-85
2021/06/22 00:58:03;;;;;;;13.20;9.20;;;23.40;94.40;;;;;;5062011;28;20121;-86
2021/06/22 01:00:29;;;;;;;11.00;8.57;;;23.40;94.40;;;;;;5078456;28;20024;-86
2021/06/22 01:02:56;;;;;;;10.02;8.48;;;23.40;94.40;;;;;;5060610;28;20033;-86
2021/06/22 01:05:23;;;;;;;11.80;9.27;;;23.40;94.40;;;;;;5075870;28;20024;-85
2021/06/22 01:07:52;;;;;;;11.45;9.13;;;23.40;94.40;;;;;;5093454;28;20059;-85
2021/06/22 01:10:18;;;;;;;11.18;9.52;;;23.30;94.40;;;;;;5093512;28;20473;-85
2021/06/22 01:12:43;;;;;;;11.23;9.00;;;23.30;94.40;;;;;;5042126;28;20116;-85
2021/06/22 01:15:24;;;;;;;11.43;10.10;;;23.40;94.40;;;;;;5041970;28;20036;-85
2021/06/22 01:17:59;;;;;;;11.90;9.60;;;23.30;94.40;;;;;;5094654;28;20031;-85
2021/06/22 01:20:32;;;;;;;13.35;9.50;;;23.30;94.40;;;;;;5082001;28;20081;-85
2021/06/22 01:23:00;;;;;;;12.88;10.15;;;23.30;94.40;;;;;;5100088;28;20028;-85
2021/06/22 01:25:26;;;;;;;11.35;9.73;;;23.30;94.40;;;;;;5065922;28;20139;-85
2021/06/22 01:27:52;;;;;;;11.95;10.02;;;23.30;94.50;;;;;;5065678;28;20067;-85
2021/06/22 01:30:18;;;;;;;12.77;10.02;;;23.30;94.50;;;;;;5065384;28;20059;-85
2021/06/22 01:32:44;;;;;;;13.68;10.75;;;23.30;94.50;;;;;;5064847;28;20478;-85
2021/06/22 01:35:11;;;;;;;13.70;9.95;;;23.30;94.50;;;;;;5099660;28;20038;-85
2021/06/22 01:37:48;;;;;;;14.93;11.40;;;23.30;94.50;;;;;;5082046;28;20058;-85
2021/06/22 01:40:14;;;;;;;15.30;11.02;;;23.30;94.50;;;;;;5081780;28;20060;-85
2021/06/22 01:42:39;;;;;;;13.43;10.80;;;23.30;94.50;;;;;;5099434;28;20051;-86
2021/06/22 01:45:06;;;;;;;14.48;11.48;;;23.30;94.50;;;;;;5081672;28;20028;-86
2021/06/22 01:47:31;;;;;;;15.93;11.07;;;23.30;94.50;;;;;;5100252;28;20092;-85
2021/06/22 01:50:02;;;;;;;12.38;10.20;;;23.20;94.40;;;;;;5081717;28;20031;-85
2021/06/22 01:52:28;;;;;;;13.88;11.13;;;23.30;94.50;;;;;;5065602;28;20432;-86
2021/06/22 01:54:56;;;;;;;12.55;10.02;;;23.20;94.40;;;;;;5065405;28;20142;-85
2021/06/22 01:57:23;;;;;;;12.93;10.90;;;23.20;94.40;;;;;;5100523;28;20119;-84
2021/06/22 01:59:48;;;;;;;13.45;10.73;;;23.20;94.50;;;;;;5099772;28;20492;-85
2021/06/22 02:02:15;;;;;;;12.80;10.80;;;23.20;94.40;;;;;;5081621;28;20028;-85
2021/06/22 02:04:40;;;;;;;15.40;11.32;;;23.20;94.40;;;;;;5081757;28;20032;-87
2021/06/22 02:07:06;;;;;;;14.50;11.30;;;23.20;94.40;;;;;;5065031;28;20120;-85
2021/06/22 02:09:31;;;;;;;15.90;11.43;;;23.20;94.40;;;;;;5064734;28;20024;-85
2021/06/22 02:11:57;;;;;;;14.90;11.25;;;23.20;94.40;;;;;;5064762;28;20028;-85
2021/06/22 02:14:23;;;;;;;15.77;10.93;;;23.20;94.40;;;;;;5081986;28;20032;-85
2021/06/22 02:16:49;;;;;;;12.95;10.50;;;23.20;94.40;;;;;;5082981;28;20099;-86
2021/06/22 02:19:15;;;;;;;13.65;11.20;;;23.20;94.40;;;;;;5084506;28;20035;-85
2021/06/22 02:21:40;;;;;;;14.93;11.48;;;23.20;94.40;;;;;;5084983;28;20032;-85
2021/06/22 02:24:06;;;;;;;14.30;10.77;;;23.20;94.40;;;;;;5081663;28;20036;-85
2021/06/22 02:26:32;;;;;;;13.82;11.35;;;23.20;94.30;;;;;;5048111;28;20549;-85
2021/06/22 02:28:57;;;;;;;13.98;10.55;;;23.10;94.30;;;;;;5060009;28;20118;-85
2021/06/22 02:31:23;;;;;;;12.48;10.38;;;23.20;94.30;;;;;;5057755;28;20090;-85
2021/06/22 02:33:49;;;;;;;12.93;10.70;;;23.20;94.30;;;;;;5041301;28;20082;-86
2021/06/22 02:36:14;;;;;;;13.40;10.02;;;23.20;94.20;;;;;;5041873;28;20056;-86
2021/06/22 02:38:40;;;;;;;13.18;10.32;;;23.10;94.20;;;;;;5058030;28;20505;-85
2021/06/22 02:41:06;;;;;;;12.55;9.88;;;23.10;94.20;;;;;;5074471;28;20028;-86
2021/06/22 02:43:32;;;;;;;13.15;9.65;;;23.10;94.10;;;;;;5074453;28;20052;-86
2021/06/22 02:45:58;;;;;;;12.50;9.82;;;23.10;94.10;;;;;;5074271;28;20085;-86
2021/06/22 02:48:24;;;;;;;12.68;10.02;;;23.10;94.10;;;;;;5058315;28;20029;-86
2021/06/22 02:50:49;;;;;;;11.25;9.32;;;23.10;94.10;;;;;;5057559;28;20378;-86
2021/06/22 02:53:15;;;;;;;11.70;9.82;;;23.10;94.10;;;;;;5057710;28;20040;-85
2021/06/22 02:55:41;;;;;;;11.27;9.38;;;23.10;94.10;;;;;;5074763;28;20043;-85
2021/06/22 02:58:07;;;;;;;11.73;9.02;;;23.10;94.10;;;;;;5057530;28;20032;-85
2021/06/22 03:00:34;;;;;;;11.40;9.30;;;23.10;94.00;;;;;;5075689;28;20051;-86
2021/06/22 03:02:59;;;;;;;11.65;8.85;;;23.00;94.00;;;;;;5074200;28;20540;-86
2021/06/22 03:05:25;;;;;;;10.70;8.55;;;23.00;94.00;;;;;;5074366;28;20120;-86
2021/06/22 03:07:51;;;;;;;11.07;8.93;;;23.00;94.00;;;;;;5040790;28;20031;-85
2021/06/22 03:10:20;;;;;;;11.18;8.77;;;23.00;94.00;;;;;;5075297;28;20050;-85
2021/06/22 03:12:46;;;;;;;10.93;9.25;;;23.00;94.00;;;;;;5073907;28;20024;-86
2021/06/22 03:15:14;;;;;;;12.88;9.02;;;23.00;94.00;;;;;;5073223;28;20039;-86
2021/06/22 03:17:40;;;;;;;11.60;9.40;;;23.00;94.00;;;;;;5057613;28;20040;-85
2021/06/22 03:20:08;;;;;;;9.55;8.20;;;23.00;94.00;;;;;;5073564;28;20028;-85
2021/06/22 03:22:33;;;;;;;10.95;8.63;;;23.00;94.00;;;;;;5074195;28;20032;-85
2021/06/22 03:24:59;;;;;;;11.65;9.25;;;23.00;94.00;;;;;;5073756;28;20044;-85
2021/06/22 03:27:25;;;;;;;10.52;8.30;;;23.00;94.00;;;;;;5056797;28;20056;-85
2021/06/22 03:29:50;;;;;;;9.75;8.07;;;23.00;94.00;;;;;;5075110;28;20471;-85
2021/06/22 03:32:16;;;;;;;8.50;7.65;;;23.00;94.00;;;;;;5057271;28;20025;-85
2021/06/22 03:34:42;;;;;;;10.48;9.05;;;23.00;94.00;;;;;;5056940;28;20037;-85
2021/06/22 03:37:08;;;;;;;10.75;8.60;;;23.00;94.10;;;;;;5056918;28;20028;-86
2021/06/22 03:39:35;;;;;;;10.02;8.38;;;23.00;94.10;;;;;;5074882;28;20027;-86
2021/06/22 03:42:01;;;;;;;10.65;8.57;;;23.00;94.10;;;;;;5074694;28;20024;-85
2021/06/22 03:44:26;;;;;;;12.43;9.88;;;23.00;94.10;;;;;;5056862;28;20406;-85
2021/06/22 03:46:52;;;;;;;9.57;8.35;;;23.00;94.10;;;;;;5073631;28;20554;-86
2021/06/22 03:49:17;;;;;;;11.32;8.98;;;23.00;94.10;;;;;;5073688;28;20036;-86
2021/06/22 03:51:43;;;;;;;10.82;8.95;;;23.00;94.10;;;;;;5056713;28;20462;-86
2021/06/22 03:54:09;;;;;;;10.75;9.05;;;23.10;94.10;;;;;;5072848;28;20382;-86
2021/06/22 03:56:35;;;;;;;9.63;8.63;;;23.00;94.10;;;;;;5056692;28;20040;-86
2021/06/22 03:59:01;;;;;;;11.85;9.02;;;23.10;94.10;;;;;;5073043;28;20028;-86
2021/06/22 04:01:26;;;;;;;10.52;9.10;;;23.00;94.10;;;;;;5039993;28;20060;-86
2021/06/22 04:03:52;;;;;;;9.82;8.82;;;23.00;94.10;;;;;;5056169;28;20037;-86
2021/06/22 04:06:18;;;;;;;11.27;9.80;;;23.00;94.10;;;;;;5056650;28;20150;-86
2021/06/22 04:08:43;;;;;;;12.25;9.43;;;23.10;94.20;;;;;;5074316;28;20029;-86
2021/06/22 04:11:09;;;;;;;11.70;10.50;;;23.10;94.20;;;;;;5056163;28;20037;-86
2021/06/22 04:13:36;;;;;;;10.18;9.07;;;23.10;94.20;;;;;;5073225;28;20040;-86
2021/06/22 04:16:02;;;;;;;12.10;9.93;;;23.10;94.10;;;;;;5072950;28;20040;-86
2021/06/22 04:18:28;;;;;;;10.82;9.73;;;23.10;94.10;;;;;;5056342;28;20111;-86
2021/06/22 04:20:54;;;;;;;11.27;9.90;;;23.10;94.10;;;;;;5072601;28;20028;-86
2021/06/22 04:23:20;;;;;;;11.50;10.00;;;23.10;94.10;;;;;;5056571;28;20389;-85
2021/06/22 04:25:47;;;;;;;13.80;10.75;;;23.00;94.10;;;;;;5074639;28;20056;-85
2021/06/22 04:28:13;;;;;;;11.27;9.98;;;23.10;94.10;;;;;;5059388;28;20063;-85
2021/06/22 04:30:39;;;;;;;11.70;10.35;;;23.10;94.00;;;;;;5058399;28;20028;-85
2021/06/22 04:33:06;;;;;;;11.77;10.20;;;23.10;94.00;;;;;;5056344;28;20036;-85
2021/06/22 04:35:32;;;;;;;12.23;10.35;;;23.00;93.90;;;;;;5073521;28;20035;-85
2021/06/22 04:37:59;;;;;;;12.40;9.57;;;23.00;93.90;;;;;;5072319;28;20029;-85
2021/06/22 04:40:25;;;;;;;13.35;10.65;;;23.00;93.80;;;;;;5072423;28;20028;-85
2021/06/22 04:42:51;;;;;;;11.38;9.63;;;23.00;93.80;;;;;;5072144;28;20051;-85
2021/06/22 04:45:16;;;;;;;10.02;8.98;;;23.00;93.70;;;;;;5055306;28;20059;-85
2021/06/22 04:47:42;;;;;;;12.63;9.98;;;23.00;93.70;;;;;;5072393;28;20028;-85
2021/06/22 04:50:08;;;;;;;10.98;9.43;;;23.00;93.70;;;;;;5073516;28;20356;-85
2021/06/22 04:52:34;;;;;;;10.23;8.80;;;23.00;93.60;;;;;;5072016;28;20062;-85
2021/06/22 04:55:00;;;;;;;11.43;9.07;;;23.00;93.60;;;;;;5071854;28;20052;-85
2021/06/22 04:57:26;;;;;;;10.90;9.50;;;23.00;93.60;;;;;;5055458;28;20032;-85
2021/06/22 04:59:52;;;;;;;11.32;9.18;;;23.00;93.60;;;;;;5072011;28;20035;-85
2021/06/22 05:02:17;;;;;;;10.77;9.05;;;23.00;93.60;;;;;;5072831;28;20038;-85
2021/06/22 05:04:43;;;;;;;9.93;8.18;;;23.00;93.60;;;;;;5038597;28;20040;-85
2021/06/22 05:07:09;;;;;;;12.85;8.82;;;23.00;93.50;;;;;;5071765;28;20029;-86
2021/06/22 05:09:34;;;;;;;9.85;8.65;;;23.00;93.50;;;;;;5071832;28;20033;-86
2021/06/22 05:12:00;;;;;;;10.07;9.00;;;23.00;93.40;;;;;;5038704;28;20119;-86
2021/06/22 05:14:26;;;;;;;9.77;8.35;;;23.00;93.40;;;;;;5071797;28;20043;-86
2021/06/22 05:16:51;;;;;;;10.23;8.75;;;23.00;93.30;;;;;;5071727;28;20033;-85
2021/06/22 05:19:17;;;;;;;8.93;7.80;;;23.00;93.30;;;;;;5055169;28;20029;-86
2021/06/22 05:21:43;;;;;;;9.68;8.50;;;23.00;93.30;;;;;;5055255;28;20059;-85
2021/06/22 05:24:11;;;;;;;9.23;7.88;;;23.00;93.30;;;;;;5054822;28;20078;-85
2021/06/22 05:26:36;;;;;;;10.05;7.70;;;23.00;93.20;;;;;;5071632;28;20039;-85
2021/06/22 05:29:02;;;;;;;8.55;7.75;;;23.00;93.20;;;;;;5071314;28;20057;-85
2021/06/22 05:31:28;;;;;;;8.85;7.60;;;23.00;93.20;;;;;;5038248;28;20029;-85
2021/06/22 05:33:55;;;;;;;10.13;8.02;;;23.00;93.20;;;;;;5054988;28;20033;-85
2021/06/22 05:36:20;;;;;;;9.48;8.07;;;23.00;93.20;;;;;;5054884;28;20087;-86
2021/06/22 05:38:46;;;;;;;8.23;7.40;;;23.00;93.20;;;;;;5038682;28;20064;-85
2021/06/22 05:41:12;;;;;;;7.78;6.97;;;23.00;93.10;;;;;;5055031;28;20031;-85
2021/06/22 05:43:37;;;;;;;10.70;8.15;;;23.00;93.10;;;;;;5038552;28;20040;-85
2021/06/22 05:46:03;;;;;;;8.75;7.85;;;23.00;93.10;;;;;;5054662;28;20100;-85
2021/06/22 05:48:29;;;;;;;8.77;7.57;;;23.00;93.00;;;;;;5071814;28;20032;-85
2021/06/22 05:50:54;;;;;;;9.15;7.60;;;23.00;93.00;;;;;;5055243;28;20029;-85
2021/06/22 05:53:20;;;;;;;7.50;6.75;;;22.90;92.90;;;;;;5054540;28;20033;-85
2021/06/22 05:55:46;;;;;;;8.73;7.47;;;23.00;93.00;;;;;;5055174;28;20036;-85
2021/06/22 05:58:12;;;;;;;8.30;7.38;;;22.90;93.00;;;;;;5038340;28;20035;-85
2021/06/22 06:00:38;;;;;;;10.05;7.47;;;23.00;93.00;;;;;;5055355;28;20025;-85
2021/06/22 06:03:04;;;;;;;7.38;6.25;;;22.90;92.90;;;;;;5071007;28;20482;-86
2021/06/22 06:05:29;;;;;;;8.68;7.55;;;23.00;92.90;;;;;;5073489;28;20123;-85
2021/06/22 06:07:55;;;;;;;9.45;7.75;;;23.00;92.90;;;;;;5075599;28;20078;-85
2021/06/22 06:10:22;;;;;;;9.95;7.18;;;23.00;92.90;;;;;;5061385;28;20032;-85
2021/06/22 06:12:48;;;;;;;8.07;7.28;;;23.00;92.90;;;;;;5081070;28;20039;-85
2021/06/22 06:15:14;;;;;;;9.18;7.25;;;23.00;92.90;;;;;;5066280;28;20185;-87
2021/06/22 06:17:40;;;;;;;7.45;6.65;;;23.00;92.90;;;;;;5059759;28;20085;-87
2021/06/22 06:20:09;;;;;;;7.82;6.60;;;23.00;92.90;;;;;;5076733;28;20483;-87
2021/06/22 06:22:36;;;;;;;9.18;7.22;;;23.10;93.00;;;;;;5075908;28;20047;-87
2021/06/22 06:25:04;;;;;;;7.72;6.55;;;23.10;93.00;;;;;;5074490;28;20040;-87
2021/06/22 06:30:15;;;;;;;10.43;7.47;;;23.10;93.00;;;;;;5097033;28;20077;-87
2021/06/22 06:32:44;;;;;;;7.97;7.18;;;23.10;92.90;;;;;;5097314;28;20139;-87
2021/06/22 06:35:10;;;;;;;7.78;6.97;;;23.10;92.80;;;;;;5094781;28;20058;-87
2021/06/22 06:37:36;;;;;;;8.15;6.45;;;23.10;92.70;;;;;;5062627;28;20060;-87
2021/06/22 06:40:03;;;;;;;7.63;6.57;;;23.20;92.70;;;;;;5095373;28;20531;-87
2021/06/22 06:42:29;;;;;;;7.72;6.13;;;23.20;92.60;;;;;;5062330;28;20035;-87
2021/06/22 06:44:54;;;;;;;6.72;5.95;;;23.20;92.50;;;;;;5061952;28;20541;-87
2021/06/22 06:47:22;;;;;;;6.20;5.60;;;23.20;92.50;;;;;;5079183;28;20389;-87
2021/06/22 06:49:48;;;;;;;6.25;5.43;;;23.20;92.50;;;;;;5097391;28;20024;-87
2021/06/22 06:52:13;;;;;;;6.38;5.63;;;23.20;92.40;;;;;;5096931;28;20028;-87
2021/06/22 06:54:39;;;;;;;5.57;5.00;;;23.20;92.30;;;;;;5095807;28;20028;-87
2021/06/22 06:57:05;;;;;;;6.53;5.18;;;23.20;92.30;;;;;;5079036;28;20386;-88
2021/06/22 06:59:31;;;;;;;5.53;5.03;;;23.20;92.20;;;;;;5095416;28;20466;-87
2021/06/22 07:01:57;;;;;;;5.00;4.50;;;23.20;92.10;;;;;;5063074;28;20028;-87
2021/06/22 07:04:23;;;;;;;5.78;4.50;;;23.20;92.00;;;;;;5079485;28;20039;-87
2021/06/22 07:06:48;;;;;;;5.43;4.63;;;23.20;91.90;;;;;;5079151;28;20497;-87
2021/06/22 07:09:14;;;;;;;4.70;4.20;;;23.30;91.90;;;;;;5097695;28;20389;-87
2021/06/22 07:11:41;;;;;;;6.00;5.00;;;23.20;91.70;;;;;;5096421;28;20093;-88
2021/06/22 07:14:07;;;;;;;5.20;4.13;;;23.20;91.70;;;;;;5097052;28;20024;-87
2021/06/22 07:16:33;;;;;;;5.05;4.28;;;23.20;91.70;;;;;;5077951;28;20036;-87
2021/06/22 07:18:59;;;;;;;4.32;3.92;;;23.20;91.60;;;;;;5095705;28;20126;-87
2021/06/22 07:21:25;;;;;;;4.97;4.35;;;23.20;91.50;;;;;;5095513;28;20024;-87
2021/06/22 07:23:52;;;;;;;4.22;3.83;;;23.20;91.50;;;;;;5078481;28;20516;-87
2021/06/22 07:26:18;;;;;;;5.30;4.00;;;23.30;91.50;;;;;;5045711;28;20048;-86
2021/06/22 07:28:44;;;;;;;4.88;4.07;;;23.30;91.50;;;;;;5060467;28;20101;-87
2021/06/22 07:31:11;;;;;;;5.35;4.22;;;23.30;91.40;;;;;;5094970;28;20126;-86
2021/06/22 07:33:38;;;;;;;5.05;3.83;;;23.30;91.60;;;;;;5077672;28;20470;-87
2021/06/22 07:36:06;;;;;;;4.70;4.22;;;23.30;91.30;;;;;;5078128;28;20094;-87
2021/06/22 07:38:32;;;;;;;4.45;4.03;;;23.20;91.20;;;;;;5095436;28;20031;-87
2021/06/22 07:40:58;;;;;;;5.07;3.92;;;23.30;91.10;;;;;;5095976;28;20024;-87
2021/06/22 07:43:23;;;;;;;4.22;3.38;;;23.30;91.10;;;;;;5061119;28;20028;-88
2021/06/22 07:45:49;;;;;;;4.63;4.05;;;23.30;91.00;;;;;;5078480;28;20024;-88
2021/06/22 07:48:15;;;;;;;5.05;3.90;;;23.30;91.00;;;;;;5077771;28;20028;-90
2021/06/22 07:50:41;;;;;;;3.33;3.03;;;23.30;91.00;;;;;;5095032;28;20029;-87
2021/06/22 07:53:06;;;;;;;4.75;3.80;;;23.30;91.00;;;;;;5095535;28;20089;-87
2021/06/22 07:55:33;;;;;;;4.70;3.78;;;23.30;91.00;;;;;;5094949;28;20035;-87
2021/06/22 07:57:58;;;;;;;3.83;3.17;;;23.30;91.00;;;;;;5093935;28;20032;-87
2021/06/22 08:03:12;;;;;;;4.15;2.88;;;23.30;90.90;;;;;;5094984;28;20031;-87
2021/06/22 08:05:39;;;;;;;3.97;3.45;;;23.30;90.90;;;;;;5093345;28;20099;-87
2021/06/22 08:08:06;;;;;;;3.92;2.90;;;23.30;90.90;;;;;;5060345;28;20583;-87
2021/06/22 08:10:32;;;;;;;3.67;3.05;;;23.30;90.90;;;;;;5060096;28;20032;-87
2021/06/22 08:12:58;;;;;;;3.78;3.10;;;23.30;90.90;;;;;;5093938;28;20104;-87
2021/06/22 08:15:26;;;;;;;3.22;2.88;;;23.30;90.90;;;;;;5093476;28;20028;-87
2021/06/22 08:17:52;;;;;;;3.50;2.95;;;23.30;90.90;;;;;;5095127;28;20028;-87
2021/06/22 08:20:18;;;;;;;3.47;3.17;;;23.30;90.90;;;;;;5076890;28;20024;-87
2021/06/22 08:22:44;;;;;;;4.50;3.33;;;23.30;90.90;;;;;;5060022;28;20465;-86
2021/06/22 08:25:11;;;;;;;3.35;3.00;;;23.30;91.00;;;;;;5093819;28;20132;-86
2021/06/22 08:27:37;;;;;;;3.35;3.05;;;23.30;90.90;;;;;;5075039;28;20473;-85
2021/06/22 08:30:05;;;;;;;4.15;2.58;;;23.30;90.90;;;;;;5094623;28;20036;-86
2021/06/22 08:32:30;;;;;;;3.15;2.70;;;23.30;90.90;;;;;;5092724;28;20043;-85
2021/06/22 08:34:57;;;;;;;3.47;2.70;;;23.30;90.90;;;;;;5059920;28;20398;-86
2021/06/22 08:37:23;;;;;;;3.20;2.67;;;23.40;90.90;;;;;;5076478;28;20032;-86
2021/06/22 08:39:48;;;;;;;4.68;3.55;;;23.40;90.90;;;;;;5061271;28;20122;-84
2021/06/22 08:42:16;;;;;;;2.55;2.35;;;23.40;90.90;;;;;;5076585;28;20058;-86
2021/06/22 08:44:45;;;;;;;3.00;2.63;;;23.40;90.90;;;;;;5094243;28;20082;-86
2021/06/22 08:47:12;;;;;;;3.00;2.67;;;23.40;90.90;;;;;;5092978;28;20077;-86
2021/06/22 08:49:38;;;;;;;3.22;2.60;;;23.40;90.90;;;;;;5090682;28;20032;-86
2021/06/22 08:52:04;;;;;;;2.70;2.40;;;23.40;91.10;;;;;;5075621;28;20032;-86
2021/06/22 08:54:30;;;;;;;3.20;2.50;;;23.40;90.90;;;;;;5075859;28;20039;-86
2021/06/22 08:56:58;;;;;;;2.97;2.50;;;23.40;90.80;;;;;;5093916;28;20032;-86
2021/06/22 08:59:23;;;;;;;3.22;2.50;;;23.40;90.80;;;;;;5075723;28;20504;-86
2021/06/22 09:01:49;;;;;;;2.90;2.40;;;23.40;90.70;;;;;;5075634;28;20028;-86
2021/06/22 09:04:15;;;;;;;3.05;2.55;;;23.40;90.70;;;;;;5075784;28;20028;-85
2021/06/22 09:06:43;;;;;;;3.50;2.03;;;23.40;90.60;;;;;;5092316;28;20024;-86
2021/06/22 09:09:10;;;;;;;2.50;2.22;;;23.40;90.60;;;;;;5092655;28;20039;-85
2021/06/22 09:11:37;;;;;;;2.13;1.92;;;23.40;90.50;;;;;;5092016;28;20020;-85
2021/06/22 09:14:05;;;;;;;2.40;2.20;;;23.40;90.50;;;;;;5092241;28;20055;-86
2021/06/22 09:16:32;;;;;;;3.72;2.05;;;23.40;90.50;;;;;;5092130;28;20028;-86
2021/06/22 09:19:07;;;;;;;2.50;2.17;;;23.40;90.40;;;;;;5058715;28;20497;-86
2021/06/22 09:21:44;;;;;;;2.25;2.00;;;23.50;90.50;;;;;;5092099;28;20062;-86
2021/06/22 09:24:19;;;;;;;2.63;2.17;;;23.50;90.50;;;;;;5091867;28;20039;-86
2021/06/22 09:26:48;;;;;;;1.98;1.70;;;23.50;90.50;;;;;;5091825;28;20024;-86
2021/06/22 09:29:16;;;;;;;2.53;2.20;;;23.50;90.50;;;;;;5090764;28;20402;-85
2021/06/22 09:32:00;;;;;;;2.30;2.10;;;23.50;90.50;;;;;;5075111;28;20081;-86
2021/06/22 09:34:28;;;;;;;2.00;1.80;;;23.50;90.50;;;;;;5093362;28;20470;-86
2021/06/22 09:36:58;;;;;;;3.33;2.25;;;23.50;90.50;;;;;;5075670;28;20062;-86
2021/06/22 09:39:26;;;;;;;2.25;1.83;;;23.50;90.50;;;;;;5093749;28;20024;-88
2021/06/22 09:41:55;;;;;;;3.20;2.30;;;23.50;90.60;;;;;;5096984;28;20055;-86
2021/06/22 09:44:30;;;;;;;2.83;2.28;;;23.50;90.60;;;;;;5093129;28;20384;-85
2021/06/22 09:47:00;;;;;;;2.67;2.25;;;23.50;90.60;;;;;;5075917;28;20527;-86
2021/06/22 09:49:29;;;;;;;3.22;2.35;;;23.50;90.50;;;;;;5075736;28;20355;-87
2021/06/22 09:52:01;;;;;;;3.17;2.35;;;23.50;90.50;;;;;;5077232;28;20020;-85
2021/06/22 09:54:30;;;;;;;3.25;2.25;;;23.50;90.50;;;;;;5059314;28;20036;-86
2021/06/22 09:57:06;;;;;;;3.20;2.40;;;23.50;90.50;;;;;;5077168;28;20028;-85
2021/06/22 09:59:45;;;;;;;2.55;2.15;;;23.50;90.50;;;;;;5076993;28;20058;-86
2021/06/22 10:02:11;;;;;;;3.80;2.47;;;23.50;90.40;;;;;;5079983;28;20028;-86
2021/06/22 10:04:40;;;;;;;3.70;2.78;;;23.50;90.40;;;;;;5046607;28;20032;-86
2021/06/22 10:07:10;;;;;;;3.95;2.47;;;23.50;90.40;;;;;;5078397;28;20036;-85
2021/06/22 10:09:36;;;;;;;3.00;2.47;;;23.50;90.40;;;;;;5058665;28;20081;-86
2021/06/22 10:12:14;;;;;;;2.83;2.42;;;23.50;90.40;;;;;;5058663;28;20032;-85
2021/06/22 10:14:48;;;;;;;2.17;1.95;;;23.50;90.40;;;;;;5075080;28;20048;-85
2021/06/22 10:17:20;;;;;;;2.63;2.40;;;23.50;90.40;;;;;;5076050;28;20056;-86
2021/06/22 10:19:50;;;;;;;3.50;2.55;;;23.50;90.40;;;;;;5074761;28;20060;-86
2021/06/22 10:22:18;;;;;;;2.22;2.00;;;23.50;90.40;;;;;;5075222;28;20107;-86
2021/06/22 10:24:46;;;;;;;3.10;2.40;;;23.50;90.40;;;;;;5074880;28;20460;-86
2021/06/22 10:27:18;;;;;;;2.75;2.53;;;23.50;90.40;;;;;;5076347;28;20028;-85
2021/06/22 10:29:46;;;;;;;2.65;2.45;;;23.50;90.40;;;;;;5074781;28;20056;-86
2021/06/22 10:32:14;;;;;;;4.15;3.17;;;23.60;90.40;;;;;;5058501;28;20426;-86
2021/06/22 10:34:44;;;;;;;3.53;2.78;;;23.50;90.40;;;;;;5074315;28;20029;-85
2021/06/22 10:37:15;;;;;;;3.42;2.80;;;23.60;90.40;;;;;;5075656;28;20024;-85
2021/06/22 10:39:51;;;;;;;4.05;2.90;;;23.50;90.50;;;;;;5075798;28;20020;-85
2021/06/22 10:42:19;;;;;;;3.83;2.58;;;23.60;90.50;;;;;;5076129;28;20025;-86
2021/06/22 10:44:59;;;;;;;2.90;2.53;;;23.60;90.60;;;;;;5041339;28;20032;-85
2021/06/22 10:47:29;;;;;;;3.10;2.80;;;23.60;90.60;;;;;;5074710;28;20064;-86
2021/06/22 10:50:04;;;;;;;3.03;2.45;;;23.60;90.60;;;;;;5075733;28;20498;-85
2021/06/22 10:52:46;;;;;;;;;;;23.60;90.70;;;;;;5073806;28;20025;-86
2021/06/22 10:55:19;;;;;;;3.47;2.58;;;23.60;90.70;;;;;;5073827;28;19930;-86
2021/06/22 10:57:57;;;;;;;3.25;2.70;;;23.60;90.80;;;;;;5074086;28;20033;-85
2021/06/22 11:00:57;;;;;;;2.90;2.53;;;23.60;90.90;;;;;;5073505;28;20482;-86
2021/06/22 11:03:32;;;;;;;3.03;2.53;;;23.60;90.90;;;;;;5074520;28;20021;-86
2021/06/22 11:06:10;;;;;;;2.97;2.45;;;23.60;90.90;;;;;;5058179;28;20474;-85
2021/06/22 11:08:41;;;;;;;2.97;2.67;;;23.60;90.90;;;;;;5075667;28;20046;-86
2021/06/22 11:11:06;;;;;;;2.40;2.20;;;23.60;90.90;;;;;;5075757;28;20028;-86
2021/06/22 11:13:51;;;;;;;3.00;2.40;;;23.60;90.90;;;;;;5075434;28;20116;-87
2021/06/22 11:16:16;;;;;;;3.53;2.47;;;23.70;90.90;;;;;;5074507;28;20055;-86
2021/06/22 11:18:54;;;;;;;2.95;2.38;;;23.60;90.80;;;;;;5073820;28;20037;-86
2021/06/22 11:21:24;;;;;;;2.97;2.47;;;23.70;90.80;;;;;;5073727;28;20083;-85
2021/06/22 11:24:19;;;;;;;4.25;2.72;;;23.60;90.70;;;;;;5073602;28;20052;-86
2021/06/22 11:26:44;;;;;;;3.05;2.55;;;23.70;90.70;;;;;;5073551;28;20571;-86
2021/06/22 11:29:22;;;;;;;3.10;2.60;;;23.60;90.60;;;;;;5073425;28;20128;-86
2021/06/22 11:31:51;;;;;;;3.10;2.60;;;23.60;90.60;;;;;;5073535;28;20024;-86
2021/06/22 11:34:33;;;;;;;3.90;2.97;;;23.60;90.60;;;;;;5073671;28;20024;-86
2021/06/22 11:37:18;;;;;;;3.67;2.60;;;23.60;90.60;;;;;;5074982;28;20020;-86
2021/06/22 11:40:06;;;;;;;3.95;2.80;;;23.60;90.60;;;;;;5073705;28;20020;-86
2021/06/22 11:42:36;;;;;;;2.78;2.47;;;23.60;90.60;;;;;;5073515;28;20047;-86
2021/06/22 11:45:13;;;;;;;3.72;2.90;;;23.60;90.60;;;;;;5073524;28;20173;-86
2021/06/22 11:47:39;;;;;;;3.85;3.00;;;23.60;90.60;;;;;;5073291;28;20448;-85
2021/06/22 11:50:10;;;;;;;2.70;2.50;;;23.60;90.60;;;;;;5073421;28;20128;-86
2021/06/22 11:52:42;;;;;;;3.20;2.90;;;23.60;90.60;;;;;;5073247;28;20025;-86
2021/06/22 11:55:15;;;;;;;3.15;2.80;;;23.60;90.60;;;;;;5073472;28;20371;-86
2021/06/22 11:57:46;;;;;;;4.07;3.30;;;23.60;90.60;;;;;;5074575;28;20028;-85
2021/06/22 12:00:17;;;;;;;4.10;3.25;;;23.60;90.60;;;;;;5057687;28;20032;-86
2021/06/22 12:02:49;;;;;;;3.28;2.90;;;23.60;90.60;;;;;;5057177;28;20033;-86
2021/06/22 12:05:17;;;;;;;3.28;2.97;;;23.60;90.50;;;;;;5075068;28;20063;-86
2021/06/22 12:07:53;;;;;;;4.18;3.20;;;23.60;90.50;;;;;;5074418;28;20025;-87
2021/06/22 12:10:21;;;;;;;3.13;2.90;;;23.60;90.80;;;;;;5074523;28;20037;-86
2021/06/22 12:12:48;;;;;;;3.47;3.17;;;23.60;90.50;;;;;;5072134;28;20373;-87
2021/06/22 12:15:30;;;;;;;3.72;2.97;;;23.60;90.50;;;;;;5056112;28;20119;-86
2021/06/22 12:17:56;;;;;;;3.25;2.95;;;23.60;90.50;;;;;;5074131;28;20039;-86
2021/06/22 12:20:23;;;;;;;3.65;3.05;;;23.60;90.50;;;;;;5056419;28;20119;-86
2021/06/22 12:23:13;;;;;;;3.47;2.88;;;23.60;90.50;;;;;;5039775;28;20482;-86
2021/06/22 12:25:39;;;;;;;3.80;2.90;;;23.60;90.40;;;;;;5063407;28;20063;-86
2021/06/22 12:28:05;;;;;;;3.20;2.90;;;23.60;90.40;;;;;;5072692;28;20469;-86
2021/06/22 12:30:47;;;;;;;3.83;2.80;;;23.60;90.40;;;;;;5039093;28;20052;-86
2021/06/22 12:33:25;;;;;;;3.75;2.88;;;23.60;90.40;;;;;;5072780;28;20278;-86
2021/06/22 12:35:53;;;;;;;3.22;2.90;;;23.60;90.30;;;;;;5072256;28;20127;-85
2021/06/22 12:38:21;;;;;;;3.50;3.10;;;23.60;90.30;;;;;;5072755;28;20028;-85
2021/06/22 12:40:54;;;;;;;3.70;3.33;;;23.60;90.30;;;;;;5072150;28;20123;-86
2021/06/22 12:43:37;;;;;;;3.88;3.30;;;23.60;90.20;;;;;;5072314;28;20024;-86
2021/06/22 12:46:03;;;;;;;4.07;3.17;;;23.60;90.20;;;;;;5072385;28;20510;-86
2021/06/22 12:48:29;;;;;;;4.25;3.47;;;23.60;90.10;;;;;;5072623;28;20024;-86
2021/06/22 12:50:55;;;;;;;4.88;3.38;;;23.60;90.10;;;;;;5072376;28;20481;-86
2021/06/22 12:53:22;;;;;;;3.97;3.58;;;23.60;90.10;;;;;;5055877;28;20086;-86